sensor_id;sensor_type;location;lat;lon;timestamp;pressure;altitude;pressure_sealevel;temperature;humidity
51229;BME280;37304;52.216;6.874;2023-03-02T00:02:08;102273.03;;;-0.81;100.00
51229;BME280;37304;52.216;6.874;2023-03-02T00:07:11;102284.66;;;-0.86;100.00
51229;BME280;37304;52.216;6.874;2023-03-02T00:12:13;102291.53;;;-0.85;100.00
51229;BME280;37304;52.216;6.874;2023-03-02T00:17:14;102289.78;;;-0.86;100.00
51229;BME280;37304;52.216;6.874;2023-03-02T00:22:15;102287.06;;;-0.90;100.00
51229;BME280;37304;52.216;6.874;2023-03-02T00:27:15;102278.34;;;-0.93;100.00
51229;BME280;37304;52.216;6.874;2023-03-02T00:32:16;102275.72;;;-0.95;100.00
51229;BME280;37304;52.216;6.874;2023-03-02T00:37:22;102291.84;;;-0.96;100.00
51229;BME280;37304;52.216;6.874;2023-03-02T00:42:24;102286.31;;;-1.04;100.00
51229;BME280;37304;52.216;6.874;2023-03-02T00:47:25;102288.06;;;-1.03;100.00
51229;BME280;37304;52.216;6.874;2023-03-02T00:52:28;102290.69;;;-1.01;100.00
51229;BME280;37304;52.216;6.874;2023-03-02T00:57:29;102291.56;;;-1.00;100.00
51229;BME280;37304;52.216;6.874;2023-03-02T01:02:30;102283.03;;;-1.01;100.00
51229;BME280;37304;52.216;6.874;2023-03-02T01:07:30;102285.25;;;-1.07;100.00
51229;BME280;37304;52.216;6.874;2023-03-02T01:12:31;102280.94;;;-1.08;100.00
51229;BME280;37304;52.216;6.874;2023-03-02T01:17:31;102274.81;;;-1.12;100.00
51229;BME280;37304;52.216;6.874;2023-03-02T01:22:32;102271.34;;;-1.12;100.00
51229;BME280;37304;52.216;6.874;2023-03-02T01:27:32;102271.28;;;-1.14;100.00
51229;BME280;37304;52.216;6.874;2023-03-02T01:32:32;102268.56;;;-1.17;100.00
51229;BME280;37304;52.216;6.874;2023-03-02T01:37:33;102250.38;;;-1.23;100.00
51229;BME280;37304;52.216;6.874;2023-03-02T01:42:38;102232.19;;;-1.29;100.00
51229;BME280;37304;52.216;6.874;2023-03-02T01:47:39;102240.28;;;-1.37;100.00
51229;BME280;37304;52.216;6.874;2023-03-02T01:52:39;102248.72;;;-1.38;100.00
51229;BME280;37304;52.216;6.874;2023-03-02T01:57:43;102249.78;;;-1.34;100.00
51229;BME280;37304;52.216;6.874;2023-03-02T02:02:45;102248.53;;;-1.26;100.00
51229;BME280;37304;52.216;6.874;2023-03-02T02:07:47;102247.91;;;-1.22;100.00
51229;BME280;37304;52.216;6.874;2023-03-02T02:12:47;102245.31;;;-1.07;100.00
51229;BME280;37304;52.216;6.874;2023-03-02T02:17:49;102227.19;;;-1.11;100.00
51229;BME280;37304;52.216;6.874;2023-03-02T02:23:02;102226.69;;;-1.21;100.00
51229;BME280;37304;52.216;6.874;2023-03-02T02:28:06;102230.84;;;-1.23;100.00
51229;BME280;37304;52.216;6.874;2023-03-02T02:33:14;102233.56;;;-1.20;100.00
51229;BME280;37304;52.216;6.874;2023-03-02T02:38:17;102230.78;;;-1.24;100.00
51229;BME280;37304;52.216;6.874;2023-03-02T02:43:20;102229.19;;;-1.22;100.00
51229;BME280;37304;52.216;6.874;2023-03-02T02:48:23;102229.00;;;-1.25;100.00
51229;BME280;37304;52.216;6.874;2023-03-02T02:53:27;102232.75;;;-1.19;100.00
51229;BME280;37304;52.216;6.874;2023-03-02T02:58:39;102228.13;;;-1.26;100.00
51229;BME280;37304;52.216;6.874;2023-03-02T03:03:50;102222.41;;;-1.37;100.00
51229;BME280;37304;52.216;6.874;2023-03-02T03:08:57;102227.13;;;-1.44;100.00
51229;BME280;37304;52.216;6.874;2023-03-02T03:14:04;102228.38;;;-1.53;100.00
51229;BME280;37304;52.216;6.874;2023-03-02T03:19:20;102221.88;;;-1.63;100.00
51229;BME280;37304;52.216;6.874;2023-03-02T03:24:22;102219.78;;;-1.70;100.00
51229;BME280;37304;52.216;6.874;2023-03-02T03:29:25;102224.44;;;-1.78;100.00
51229;BME280;37304;52.216;6.874;2023-03-02T03:34:27;102228.31;;;-1.84;100.00
51229;BME280;37304;52.216;6.874;2023-03-02T03:39:29;102222.94;;;-1.89;100.00
51229;BME280;37304;52.216;6.874;2023-03-02T03:44:29;102219.25;;;-1.94;100.00
51229;BME280;37304;52.216;6.874;2023-03-02T03:49:30;102227.69;;;-1.95;100.00
51229;BME280;37304;52.216;6.874;2023-03-02T03:54:30;102214.69;;;-2.00;100.00
51229;BME280;37304;52.216;6.874;2023-03-02T03:59:31;102218.91;;;-2.00;100.00
51229;BME280;37304;52.216;6.874;2023-03-02T04:04:33;102217.84;;;-2.04;100.00
51229;BME280;37304;52.216;6.874;2023-03-02T04:09:34;102218.56;;;-2.07;100.00
51229;BME280;37304;52.216;6.874;2023-03-02T04:14:37;102214.00;;;-2.12;100.00
51229;BME280;37304;52.216;6.874;2023-03-02T04:19:37;102207.06;;;-2.15;100.00
51229;BME280;37304;52.216;6.874;2023-03-02T04:24:37;102203.56;;;-2.17;100.00
51229;BME280;37304;52.216;6.874;2023-03-02T04:29:38;102211.00;;;-2.20;100.00
51229;BME280;37304;52.216;6.874;2023-03-02T04:34:39;102207.50;;;-2.22;100.00
51229;BME280;37304;52.216;6.874;2023-03-02T04:39:40;102204.84;;;-2.24;100.00
51229;BME280;37304;52.216;6.874;2023-03-02T04:44:41;102214.00;;;-2.27;100.00
51229;BME280;37304;52.216;6.874;2023-03-02T04:49:41;102209.59;;;-2.30;100.00
51229;BME280;37304;52.216;6.874;2023-03-02T04:54:42;102221.25;;;-2.34;100.00
51229;BME280;37304;52.216;6.874;2023-03-02T04:59:42;102229.97;;;-2.30;100.00
51229;BME280;37304;52.216;6.874;2023-03-02T05:04:42;102226.13;;;-2.23;100.00
51229;BME280;37304;52.216;6.874;2023-03-02T05:09:43;102226.38;;;-2.18;100.00
51229;BME280;37304;52.216;6.874;2023-03-02T05:14:43;102223.22;;;-2.14;100.00
51229;BME280;37304;52.216;6.874;2023-03-02T05:19:44;102223.31;;;-2.13;100.00
51229;BME280;37304;52.216;6.874;2023-03-02T05:24:44;102223.38;;;-2.11;100.00
51229;BME280;37304;52.216;6.874;2023-03-02T05:29:44;102220.03;;;-2.10;100.00
51229;BME280;37304;52.216;6.874;2023-03-02T05:34:45;102222.78;;;-2.07;100.00
51229;BME280;37304;52.216;6.874;2023-03-02T05:39:45;102222.78;;;-2.07;100.00
51229;BME280;37304;52.216;6.874;2023-03-02T05:44:46;102213.47;;;-2.07;100.00
51229;BME280;37304;52.216;6.874;2023-03-02T05:49:46;102226.91;;;-2.09;100.00
51229;BME280;37304;52.216;6.874;2023-03-02T05:54:46;102219.09;;;-2.12;100.00
51229;BME280;37304;52.216;6.874;2023-03-02T05:59:47;102229.09;;;-2.15;100.00
51229;BME280;37304;52.216;6.874;2023-03-02T06:04:47;102228.22;;;-2.16;100.00
51229;BME280;37304;52.216;6.874;2023-03-02T06:09:47;102231.56;;;-2.17;100.00
51229;BME280;37304;52.216;6.874;2023-03-02T06:14:48;102239.22;;;-2.17;100.00
51229;BME280;37304;52.216;6.874;2023-03-02T06:19:49;102238.66;;;-2.11;100.00
51229;BME280;37304;52.216;6.874;2023-03-02T06:24:49;102231.56;;;-2.02;100.00
51229;BME280;37304;52.216;6.874;2023-03-02T06:29:49;102244.69;;;-1.96;100.00
51229;BME280;37304;52.216;6.874;2023-03-02T06:34:50;102257.94;;;-1.86;100.00
51229;BME280;37304;52.216;6.874;2023-03-02T06:39:50;102255.97;;;-1.76;100.00
51229;BME280;37304;52.216;6.874;2023-03-02T06:44:50;102264.41;;;-1.62;100.00
51229;BME280;37304;52.216;6.874;2023-03-02T06:49:53;102253.06;;;-1.52;100.00
51229;BME280;37304;52.216;6.874;2023-03-02T06:54:54;102265.44;;;-1.43;100.00
51229;BME280;37304;52.216;6.874;2023-03-02T06:59:55;102257.44;;;-1.34;100.00
51229;BME280;37304;52.216;6.874;2023-03-02T07:04:55;102257.88;;;-1.26;100.00
51229;BME280;37304;52.216;6.874;2023-03-02T07:09:55;102252.13;;;-1.22;100.00
51229;BME280;37304;52.216;6.874;2023-03-02T07:14:56;102253.44;;;-1.14;100.00
51229;BME280;37304;52.216;6.874;2023-03-02T07:19:56;102250.31;;;-1.08;100.00
51229;BME280;37304;52.216;6.874;2023-03-02T07:24:57;102240.38;;;-1.04;100.00
51229;BME280;37304;52.216;6.874;2023-03-02T07:29:57;102245.50;;;-0.87;100.00
51229;BME280;37304;52.216;6.874;2023-03-02T07:34:57;102250.84;;;-0.82;100.00
51229;BME280;37304;52.216;6.874;2023-03-02T07:39:58;102251.34;;;-0.73;100.00
51229;BME280;37304;52.216;6.874;2023-03-02T07:44:58;102247.44;;;-0.66;100.00
51229;BME280;37304;52.216;6.874;2023-03-02T07:49:58;102248.16;;;-0.69;100.00
51229;BME280;37304;52.216;6.874;2023-03-02T07:54:59;102252.75;;;-0.45;100.00
51229;BME280;37304;52.216;6.874;2023-03-02T07:59:59;102253.56;;;-0.46;100.00
51229;BME280;37304;52.216;6.874;2023-03-02T08:05:00;102251.63;;;-0.34;100.00
51229;BME280;37304;52.216;6.874;2023-03-02T08:10:00;102252.13;;;-0.24;100.00
51229;BME280;37304;52.216;6.874;2023-03-02T08:15:00;102244.81;;;0.00;100.00
51229;BME280;37304;52.216;6.874;2023-03-02T08:20:01;102244.81;;;0.18;100.00
51229;BME280;37304;52.216;6.874;2023-03-02T08:25:02;102249.28;;;0.22;100.00
51229;BME280;37304;52.216;6.874;2023-03-02T08:30:03;102253.06;;;0.31;100.00
51229;BME280;37304;52.216;6.874;2023-03-02T08:35:05;102246.94;;;0.81;100.00
51229;BME280;37304;52.216;6.874;2023-03-02T08:40:06;102240.22;;;1.62;100.00
51229;BME280;37304;52.216;6.874;2023-03-02T08:45:07;102224.53;;;3.06;100.00
51229;BME280;37304;52.216;6.874;2023-03-02T08:50:08;102215.06;;;4.05;100.00
51229;BME280;37304;52.216;6.874;2023-03-02T08:55:09;102197.63;;;4.80;100.00
51229;BME280;37304;52.216;6.874;2023-03-02T09:00:10;102194.25;;;3.22;100.00
51229;BME280;37304;52.216;6.874;2023-03-02T09:05:13;102198.81;;;3.55;100.00
51229;BME280;37304;52.216;6.874;2023-03-02T09:10:14;102206.59;;;4.64;100.00
51229;BME280;37304;52.216;6.874;2023-03-02T09:15:14;102197.28;;;5.98;100.00
51229;BME280;37304;52.216;6.874;2023-03-02T09:20:14;102202.09;;;6.56;100.00
51229;BME280;37304;52.216;6.874;2023-03-02T09:25:17;102195.28;;;7.98;100.00
51229;BME280;37304;52.216;6.874;2023-03-02T09:30:18;102192.06;;;8.13;100.00
51229;BME280;37304;52.216;6.874;2023-03-02T09:35:20;102191.31;;;8.20;100.00
51229;BME280;37304;52.216;6.874;2023-03-02T09:40:21;102185.47;;;8.98;100.00
51229;BME280;37304;52.216;6.874;2023-03-02T09:45:38;102187.28;;;8.41;100.00
51229;BME280;37304;52.216;6.874;2023-03-02T09:50:58;102178.28;;;9.60;100.00
51229;BME280;37304;52.216;6.874;2023-03-02T09:56:00;102175.41;;;9.28;100.00
51229;BME280;37304;52.216;6.874;2023-03-02T10:01:05;102181.53;;;10.46;100.00
51229;BME280;37304;52.216;6.874;2023-03-02T10:06:09;102177.28;;;10.59;100.00
51229;BME280;37304;52.216;6.874;2023-03-02T10:11:23;102184.81;;;10.20;100.00
51229;BME280;37304;52.216;6.874;2023-03-02T10:16:36;102186.22;;;11.43;100.00
51229;BME280;37304;52.216;6.874;2023-03-02T10:21:39;102178.44;;;11.76;100.00
51229;BME280;37304;52.216;6.874;2023-03-02T10:26:48;102184.50;;;11.81;100.00
51229;BME280;37304;52.216;6.874;2023-03-02T10:31:54;102175.81;;;12.10;100.00
51229;BME280;37304;52.216;6.874;2023-03-02T10:36:57;102163.66;;;11.59;100.00
51229;BME280;37304;52.216;6.874;2023-03-02T10:42:05;102158.28;;;12.66;93.60
51229;BME280;37304;52.216;6.874;2023-03-02T10:47:20;102163.66;;;11.61;98.02
51229;BME280;37304;52.216;6.874;2023-03-02T10:52:25;102160.19;;;11.94;93.63
51229;BME280;37304;52.216;6.874;2023-03-02T10:57:36;102158.44;;;11.97;90.98
51229;BME280;37304;52.216;6.874;2023-03-02T11:02:37;102161.88;;;12.33;97.60
51229;BME280;37304;52.216;6.874;2023-03-02T11:07:37;102160.97;;;12.45;90.48
51229;BME280;37304;52.216;6.874;2023-03-02T11:12:45;102160.13;;;12.26;86.87
51229;BME280;37304;52.216;6.874;2023-03-02T11:17:53;102149.66;;;12.43;85.81
51229;BME280;37304;52.216;6.874;2023-03-02T11:23:17;102152.38;;;11.79;87.38
51229;BME280;37304;52.216;6.874;2023-03-02T11:28:46;102153.03;;;12.74;82.10
51229;BME280;37304;52.216;6.874;2023-03-02T11:33:58;102156.09;;;13.49;78.75
51229;BME280;37304;52.216;6.874;2023-03-02T11:39:01;102150.00;;;13.47;80.25
51229;BME280;37304;52.216;6.874;2023-03-02T11:44:19;102140.75;;;12.96;83.09
51229;BME280;37304;52.216;6.874;2023-03-02T11:49:31;102126.66;;;13.21;76.15
51229;BME280;37304;52.216;6.874;2023-03-02T11:54:41;102127.59;;;13.12;76.27
51229;BME280;37304;52.216;6.874;2023-03-02T11:59:42;102117.63;;;11.78;76.29
51229;BME280;37304;52.216;6.874;2023-03-02T12:04:42;102108.03;;;12.21;77.19
51229;BME280;37304;52.216;6.874;2023-03-02T12:09:43;102101.56;;;13.04;74.27
51229;BME280;37304;52.216;6.874;2023-03-02T12:14:43;102088.00;;;13.69;72.91
51229;BME280;37304;52.216;6.874;2023-03-02T12:19:45;102084.63;;;12.12;77.92
51229;BME280;37304;52.216;6.874;2023-03-02T12:24:45;102080.34;;;11.51;81.04
51229;BME280;37304;52.216;6.874;2023-03-02T12:29:49;102077.28;;;8.85;96.07
51229;BME280;37304;52.216;6.874;2023-03-02T12:50:37;102054.13;;;7.09;100.00
51229;BME280;37304;52.216;6.874;2023-03-02T12:55:37;102045.47;;;7.07;100.00
51229;BME280;37304;52.216;6.874;2023-03-02T13:00:37;102040.28;;;6.58;100.00
51229;BME280;37304;52.216;6.874;2023-03-02T13:05:37;102022.13;;;8.23;100.00
51229;BME280;37304;52.216;6.874;2023-03-02T13:10:52;102023.03;;;10.60;100.00
51229;BME280;37304;52.216;6.874;2023-03-02T13:15:56;102008.31;;;11.52;100.00
51229;BME280;37304;52.216;6.874;2023-03-02T13:21:01;102010.94;;;11.43;94.69
51229;BME280;37304;52.216;6.874;2023-03-02T13:26:04;102004.56;;;12.43;85.46
51229;BME280;37304;52.216;6.874;2023-03-02T13:31:16;101999.66;;;13.15;82.59
51229;BME280;37304;52.216;6.874;2023-03-02T13:36:24;102000.50;;;11.55;91.75
51229;BME280;37304;52.216;6.874;2023-03-02T13:41:27;101998.59;;;12.18;88.97
51229;BME280;37304;52.216;6.874;2023-03-02T13:46:33;101997.59;;;9.78;98.15
51229;BME280;37304;52.216;6.874;2023-03-02T13:51:36;101996.19;;;8.98;100.00
51229;BME280;37304;52.216;6.874;2023-03-02T13:56:38;101992.31;;;8.57;100.00
51229;BME280;37304;52.216;6.874;2023-03-02T14:01:39;101988.38;;;8.12;100.00
51229;BME280;37304;52.216;6.874;2023-03-02T14:06:46;101982.66;;;7.70;100.00
51229;BME280;37304;52.216;6.874;2023-03-02T14:11:47;101976.31;;;7.48;100.00
51229;BME280;37304;52.216;6.874;2023-03-02T14:16:48;101967.59;;;7.42;100.00
51229;BME280;37304;52.216;6.874;2023-03-02T14:21:48;101974.31;;;7.29;100.00
51229;BME280;37304;52.216;6.874;2023-03-02T14:26:49;101956.69;;;7.05;100.00
51229;BME280;37304;52.216;6.874;2023-03-02T14:31:49;101963.50;;;7.00;100.00
51229;BME280;37304;52.216;6.874;2023-03-02T14:36:52;101964.94;;;6.82;100.00
51229;BME280;37304;52.216;6.874;2023-03-02T14:41:53;101958.72;;;6.73;100.00
51229;BME280;37304;52.216;6.874;2023-03-02T14:46:54;101952.56;;;6.64;100.00
51229;BME280;37304;52.216;6.874;2023-03-02T14:57:02;101957.69;;;6.61;100.00
51229;BME280;37304;52.216;6.874;2023-03-02T15:02:05;101958.88;;;6.31;100.00
51229;BME280;37304;52.216;6.874;2023-03-02T15:07:10;101953.88;;;6.42;100.00
51229;BME280;37304;52.216;6.874;2023-03-02T15:12:11;101963.16;;;6.31;100.00
51229;BME280;37304;52.216;6.874;2023-03-02T15:17:11;101957.03;;;6.27;100.00
51229;BME280;37304;52.216;6.874;2023-03-02T15:22:12;101961.19;;;6.19;100.00
51229;BME280;37304;52.216;6.874;2023-03-02T15:27:13;101954.81;;;6.01;100.00
51229;BME280;37304;52.216;6.874;2023-03-02T15:32:13;101956.13;;;5.82;100.00
51229;BME280;37304;52.216;6.874;2023-03-02T15:37:14;101953.47;;;5.77;100.00
51229;BME280;37304;52.216;6.874;2023-03-02T15:42:14;101955.06;;;5.72;100.00
51229;BME280;37304;52.216;6.874;2023-03-02T15:47:15;101950.63;;;5.65;100.00
51229;BME280;37304;52.216;6.874;2023-03-02T15:52:15;101939.94;;;5.48;100.00
51229;BME280;37304;52.216;6.874;2023-03-02T15:57:18;101944.13;;;5.43;100.00
51229;BME280;37304;52.216;6.874;2023-03-02T16:02:18;101944.00;;;5.38;100.00
51229;BME280;37304;52.216;6.874;2023-03-02T16:07:18;101944.63;;;5.28;100.00
51229;BME280;37304;52.216;6.874;2023-03-02T16:12:19;101954.78;;;5.21;100.00
51229;BME280;37304;52.216;6.874;2023-03-02T16:17:22;101950.59;;;4.90;100.00
51229;BME280;37304;52.216;6.874;2023-03-02T16:22:23;101965.84;;;4.80;100.00
51229;BME280;37304;52.216;6.874;2023-03-02T16:27:26;101965.25;;;4.59;100.00
51229;BME280;37304;52.216;6.874;2023-03-02T16:32:26;101979.78;;;4.57;100.00
51229;BME280;37304;52.216;6.874;2023-03-02T16:37:27;101979.22;;;4.35;100.00
51229;BME280;37304;52.216;6.874;2023-03-02T16:42:27;101985.69;;;4.20;100.00
51229;BME280;37304;52.216;6.874;2023-03-02T16:47:29;101996.41;;;4.05;100.00
51229;BME280;37304;52.216;6.874;2023-03-02T16:52:29;101998.44;;;3.87;100.00
51229;BME280;37304;52.216;6.874;2023-03-02T16:57:30;102005.81;;;3.74;100.00
51229;BME280;37304;52.216;6.874;2023-03-02T17:02:31;102007.97;;;3.62;100.00
51229;BME280;37304;52.216;6.874;2023-03-02T17:07:31;102014.09;;;3.38;100.00
51229;BME280;37304;52.216;6.874;2023-03-02T17:12:31;102019.50;;;3.20;100.00
51229;BME280;37304;52.216;6.874;2023-03-02T17:17:32;102019.94;;;3.06;100.00
51229;BME280;37304;52.216;6.874;2023-03-02T17:22:33;102027.97;;;2.91;100.00
51229;BME280;37304;52.216;6.874;2023-03-02T17:27:33;102036.78;;;2.74;100.00
51229;BME280;37304;52.216;6.874;2023-03-02T17:32:34;102044.81;;;2.59;100.00
51229;BME280;37304;52.216;6.874;2023-03-02T17:37:35;102054.59;;;2.45;100.00
51229;BME280;37304;52.216;6.874;2023-03-02T17:42:35;102054.84;;;2.28;100.00
51229;BME280;37304;52.216;6.874;2023-03-02T17:47:35;102061.22;;;2.15;100.00
51229;BME280;37304;52.216;6.874;2023-03-02T17:52:36;102077.13;;;2.07;100.00
51229;BME280;37304;52.216;6.874;2023-03-02T17:57:36;102072.22;;;1.90;100.00
51229;BME280;37304;52.216;6.874;2023-03-02T18:02:37;102079.31;;;1.74;100.00
51229;BME280;37304;52.216;6.874;2023-03-02T18:07:37;102079.59;;;1.61;100.00
51229;BME280;37304;52.216;6.874;2023-03-02T18:12:37;102088.63;;;1.51;100.00
51229;BME280;37304;52.216;6.874;2023-03-02T18:17:38;102093.13;;;1.36;100.00
51229;BME280;37304;52.216;6.874;2023-03-02T18:22:38;102101.97;;;1.23;100.00
51229;BME280;37304;52.216;6.874;2023-03-02T18:27:39;102100.53;;;1.08;100.00
51229;BME280;37304;52.216;6.874;2023-03-02T18:32:39;102102.66;;;0.99;100.00
51229;BME280;37304;52.216;6.874;2023-03-02T18:37:40;102115.81;;;0.87;100.00
51229;BME280;37304;52.216;6.874;2023-03-02T18:42:41;102118.09;;;0.81;100.00
51229;BME280;37304;52.216;6.874;2023-03-02T18:47:44;102126.09;;;0.69;100.00
51229;BME280;37304;52.216;6.874;2023-03-02T18:52:45;102130.94;;;0.63;100.00
51229;BME280;37304;52.216;6.874;2023-03-02T18:57:45;102133.94;;;0.54;100.00
51229;BME280;37304;52.216;6.874;2023-03-02T19:02:46;102132.88;;;0.49;100.00
51229;BME280;37304;52.216;6.874;2023-03-02T19:07:47;102135.94;;;0.41;100.00
51229;BME280;37304;52.216;6.874;2023-03-02T19:12:51;102141.81;;;0.39;100.00
51229;BME280;37304;52.216;6.874;2023-03-02T19:17:52;102145.69;;;0.31;100.00
51229;BME280;37304;52.216;6.874;2023-03-02T19:22:54;102144.44;;;0.22;100.00
51229;BME280;37304;52.216;6.874;2023-03-02T19:27:54;102146.00;;;0.19;100.00
51229;BME280;37304;52.216;6.874;2023-03-02T19:32:55;102148.31;;;0.14;100.00
51229;BME280;37304;52.216;6.874;2023-03-02T19:37:56;102149.78;;;0.09;100.00
51229;BME280;37304;52.216;6.874;2023-03-02T19:42:57;102154.59;;;0.03;100.00
51229;BME280;37304;52.216;6.874;2023-03-02T19:47:58;102162.03;;;-0.02;100.00
51229;BME280;37304;52.216;6.874;2023-03-02T19:52:59;102159.13;;;-0.10;100.00
51229;BME280;37304;52.216;6.874;2023-03-02T19:57:59;102165.47;;;-0.20;100.00
51229;BME280;37304;52.216;6.874;2023-03-02T20:03:01;102161.50;;;-0.31;100.00
51229;BME280;37304;52.216;6.874;2023-03-02T20:08:01;102167.91;;;-0.39;100.00
51229;BME280;37304;52.216;6.874;2023-03-02T20:13:03;102166.56;;;-0.49;100.00
51229;BME280;37304;52.216;6.874;2023-03-02T20:18:06;102165.25;;;-0.59;100.00
51229;BME280;37304;52.216;6.874;2023-03-02T20:23:07;102172.97;;;-0.57;100.00
51229;BME280;37304;52.216;6.874;2023-03-02T20:28:08;102177.28;;;-0.56;100.00
51229;BME280;37304;52.216;6.874;2023-03-02T20:33:12;102178.88;;;-0.59;100.00
51229;BME280;37304;52.216;6.874;2023-03-02T20:38:23;102180.63;;;-0.57;100.00
51229;BME280;37304;52.216;6.874;2023-03-02T20:43:25;102180.47;;;-0.61;100.00
51229;BME280;37304;52.216;6.874;2023-03-02T20:48:27;102184.38;;;-0.67;100.00
51229;BME280;37304;52.216;6.874;2023-03-02T20:53:27;102185.03;;;-0.55;100.00
51229;BME280;37304;52.216;6.874;2023-03-02T20:58:28;102192.09;;;-0.49;100.00
51229;BME280;37304;52.216;6.874;2023-03-02T21:03:29;102188.69;;;-0.50;100.00
51229;BME280;37304;52.216;6.874;2023-03-02T21:08:29;102196.56;;;-0.45;100.00
51229;BME280;37304;52.216;6.874;2023-03-02T21:13:32;102200.06;;;-0.43;100.00
51229;BME280;37304;52.216;6.874;2023-03-02T21:18:33;102197.22;;;-0.33;100.00
51229;BME280;37304;52.216;6.874;2023-03-02T21:23:33;102194.22;;;-0.24;100.00
51229;BME280;37304;52.216;6.874;2023-03-02T21:28:35;102198.78;;;-0.35;100.00
51229;BME280;37304;52.216;6.874;2023-03-02T21:33:36;102203.72;;;-0.38;100.00
51229;BME280;37304;52.216;6.874;2023-03-02T21:38:36;102209.19;;;-0.48;100.00
51229;BME280;37304;52.216;6.874;2023-03-02T21:43:37;102192.75;;;-0.53;100.00
51229;BME280;37304;52.216;6.874;2023-03-02T21:48:37;102202.41;;;-0.48;100.00
51229;BME280;37304;52.216;6.874;2023-03-02T21:53:37;102197.47;;;-0.45;100.00
51229;BME280;37304;52.216;6.874;2023-03-02T21:58:38;102211.69;;;-0.50;100.00
51229;BME280;37304;52.216;6.874;2023-03-02T22:03:39;102212.03;;;-0.42;100.00
51229;BME280;37304;52.216;6.874;2023-03-02T22:08:40;102207.09;;;-0.39;100.00
51229;BME280;37304;52.216;6.874;2023-03-02T22:13:40;102196.16;;;-0.36;100.00
51229;BME280;37304;52.216;6.874;2023-03-02T22:18:43;102189.31;;;-0.37;100.00
51229;BME280;37304;52.216;6.874;2023-03-02T22:23:43;102185.06;;;-0.37;100.00
51229;BME280;37304;52.216;6.874;2023-03-02T22:28:44;102183.44;;;-0.35;100.00
51229;BME280;37304;52.216;6.874;2023-03-02T22:33:44;102189.66;;;-0.48;100.00
51229;BME280;37304;52.216;6.874;2023-03-02T22:38:45;102200.97;;;-0.42;100.00
51229;BME280;37304;52.216;6.874;2023-03-02T22:43:45;102194.16;;;-0.42;100.00
51229;BME280;37304;52.216;6.874;2023-03-02T22:48:48;102207.88;;;-0.40;100.00
51229;BME280;37304;52.216;6.874;2023-03-02T22:53:55;102215.84;;;-0.34;100.00
51229;BME280;37304;52.216;6.874;2023-03-02T22:59:01;102211.81;;;-0.30;100.00
51229;BME280;37304;52.216;6.874;2023-03-02T23:09:08;102216.25;;;-0.26;100.00
51229;BME280;37304;52.216;6.874;2023-03-02T23:14:25;102224.00;;;-0.24;100.00
51229;BME280;37304;52.216;6.874;2023-03-02T23:19:27;102224.00;;;-0.24;100.00
51229;BME280;37304;52.216;6.874;2023-03-02T23:24:28;102222.25;;;-0.25;100.00
51229;BME280;37304;52.216;6.874;2023-03-02T23:29:29;102220.00;;;-0.19;100.00
51229;BME280;37304;52.216;6.874;2023-03-02T23:34:30;102219.41;;;-0.13;100.00
51229;BME280;37304;52.216;6.874;2023-03-02T23:39:30;102214.31;;;-0.13;100.00
51229;BME280;37304;52.216;6.874;2023-03-02T23:44:31;102209.59;;;-0.06;100.00
51229;BME280;37304;52.216;6.874;2023-03-02T23:49:31;102205.28;;;-0.07;100.00
51229;BME280;37304;52.216;6.874;2023-03-02T23:54:31;102207.97;;;-0.04;100.00
51229;BME280;37304;52.216;6.874;2023-03-02T23:59:32;102210.28;;;0.08;100.00
